Time;durP1;ratioP1;P1;durP2;ratioP2;P2;SDS_P1;SDS_P2;PMS_P1;PMS_P2;Temp;Humidity;BMP_temperature;BMP_pressure;BME280_temperature;BME280_humidity;BME280_pressure;Samples;Min_cycle;Max_cycle;Signal;HPM_P1;HPM_P2
2022/08/31 00:05:05;;;;;;;62.05;51.08;;;25.70;51.70;;;;;;4932858;28;90049;-60
2022/08/31 00:07:33;;;;;;;61.78;51.15;;;25.60;51.70;;;;;;4926847;28;91507;-60
2022/08/31 00:10:02;;;;;;;62.50;50.75;;;25.60;51.70;;;;;;4927732;28;91009;-59
2022/08/31 00:12:28;;;;;;;61.90;50.67;;;25.60;51.70;;;;;;4942332;28;89966;-60
2022/08/31 00:14:54;;;;;;;61.42;50.72;;;25.60;51.70;;;;;;4940163;28;90188;-60
2022/08/31 00:17:19;;;;;;;61.83;50.75;;;25.60;51.80;;;;;;4932466;28;89657;-60
2022/08/31 00:19:45;;;;;;;61.63;51.03;;;25.60;51.90;;;;;;4932122;28;90036;-60
2022/08/31 00:22:10;;;;;;;60.83;50.53;;;25.50;51.90;;;;;;4929940;28;89957;-60
2022/08/31 00:24:36;;;;;;;61.55;50.53;;;25.60;51.90;;;;;;4938679;28;90181;-60
2022/08/31 00:27:02;;;;;;;61.85;50.97;;;25.50;51.80;;;;;;4935082;28;90275;-60
2022/08/31 00:29:28;;;;;;;61.38;50.67;;;25.60;51.90;;;;;;4936154;28;89653;-60
2022/08/31 00:31:53;;;;;;;62.75;51.00;;;25.50;51.90;;;;;;4933321;28;90279;-60
2022/08/31 00:34:21;;;;;;;61.72;50.70;;;25.50;52.00;;;;;;4925606;28;91116;-60
2022/08/31 00:36:46;;;;;;;62.17;50.78;;;25.50;52.00;;;;;;4932777;28;91038;-60
2022/08/31 00:39:13;;;;;;;61.95;50.53;;;25.40;52.00;;;;;;4933537;28;89586;-60
2022/08/31 00:41:39;;;;;;;62.90;50.55;;;25.50;52.10;;;;;;4935298;28;92514;-60
2022/08/31 00:44:07;;;;;;;61.75;50.70;;;25.40;52.10;;;;;;4927484;28;90141;-60
2022/08/31 00:46:42;;;;;;;60.70;50.58;;;25.40;52.10;;;;;;4928684;28;90969;-60
2022/08/31 00:49:38;;;;;;;61.10;50.70;;;25.40;52.20;;;;;;4932147;28;90594;-60
2022/08/31 00:52:11;;;;;;;61.05;50.63;;;25.40;52.20;;;;;;4929027;28;90804;-60
2022/08/31 00:54:59;;;;;;;61.25;50.92;;;25.40;52.20;;;;;;4938024;28;90158;-60
2022/08/31 00:57:30;;;;;;;61.55;50.90;;;25.40;52.30;;;;;;4940186;28;89491;-60
2022/08/31 00:59:58;;;;;;;60.72;50.63;;;25.40;52.30;;;;;;4929809;28;92891;-60
2022/08/31 01:02:23;;;;;;;60.80;50.80;;;25.40;52.40;;;;;;4932035;28;89962;-60
2022/08/31 01:04:49;;;;;;;60.88;50.53;;;25.40;52.40;;;;;;4935412;28;90258;-60
2022/08/31 01:07:15;;;;;;;61.10;50.78;;;25.40;52.50;;;;;;4934241;28;90516;-61
2022/08/31 01:09:42;;;;;;;61.60;50.55;;;25.40;52.50;;;;;;4944669;28;89676;-60
2022/08/31 01:12:10;;;;;;;60.63;50.50;;;25.40;52.60;;;;;;4932212;28;93418;-59
2022/08/31 01:14:37;;;;;;;60.95;50.70;;;25.40;52.60;;;;;;4941897;28;89535;-60
2022/08/31 01:17:03;;;;;;;61.70;50.88;;;25.40;52.60;;;;;;4940945;28;89687;-60
2022/08/31 01:19:52;;;;;;;62.60;50.85;;;25.30;52.50;;;;;;4927583;28;89697;-60
2022/08/31 01:22:36;;;;;;;61.13;50.78;;;25.30;52.60;;;;;;4923972;28;89647;-60
2022/08/31 01:25:03;;;;;;;60.20;50.38;;;25.30;52.70;;;;;;4926365;28;91815;-60
2022/08/31 01:27:32;;;;;;;60.78;50.88;;;25.30;52.60;;;;;;4938521;28;89719;-60
2022/08/31 01:29:59;;;;;;;61.08;50.53;;;25.30;52.70;;;;;;4932746;28;90111;-60
2022/08/31 01:32:25;;;;;;;60.97;50.50;;;25.30;52.70;;;;;;4924886;28;95047;-60
2022/08/31 01:34:51;;;;;;;61.63;50.45;;;25.30;52.70;;;;;;4933151;28;91124;-60
2022/08/31 01:37:17;;;;;;;60.78;50.63;;;25.30;52.70;;;;;;4931099;28;91510;-61
2022/08/31 01:39:42;;;;;;;60.65;50.42;;;25.30;52.70;;;;;;4931671;28;89995;-60
2022/08/31 01:42:08;;;;;;;61.58;50.67;;;25.20;52.80;;;;;;4936208;28;90242;-60
2022/08/31 01:44:34;;;;;;;60.63;50.72;;;25.20;52.70;;;;;;4927186;28;90556;-60
2022/08/31 01:46:59;;;;;;;60.65;50.50;;;25.20;52.80;;;;;;4931336;28;90049;-61
2022/08/31 01:49:25;;;;;;;61.90;50.55;;;25.20;52.90;;;;;;4932351;28;91018;-60
2022/08/31 01:51:52;;;;;;;60.65;50.50;;;25.20;52.90;;;;;;4927549;28;90170;-60
2022/08/31 01:54:19;;;;;;;60.80;50.28;;;25.20;52.90;;;;;;4932636;28;90113;-60
2022/08/31 01:56:46;;;;;;;60.97;50.45;;;25.20;52.90;;;;;;4937714;28;92068;-60
2022/08/31 01:59:14;;;;;;;61.67;50.72;;;25.20;52.90;;;;;;4925804;28;90144;-60
2022/08/31 02:01:43;;;;;;;60.55;50.25;;;25.20;53.00;;;;;;4929385;28;90410;-60
2022/08/31 02:04:11;;;;;;;60.85;50.63;;;25.20;52.60;;;;;;4923764;28;90631;-60
2022/08/31 02:06:39;;;;;;;61.45;50.72;;;25.10;53.00;;;;;;4934672;28;95415;-61
2022/08/31 02:09:06;;;;;;;60.20;50.42;;;25.20;53.20;;;;;;4930550;28;89633;-60
2022/08/31 02:11:32;;;;;;;61.13;50.63;;;25.10;53.10;;;;;;4937058;28;89805;-60
2022/08/31 02:13:57;;;;;;;61.33;50.50;;;25.10;53.10;;;;;;4929815;28;91399;-60
2022/08/31 02:16:23;;;;;;;60.17;50.50;;;25.10;53.10;;;;;;4932299;28;90889;-60
2022/08/31 02:18:49;;;;;;;60.72;50.53;;;25.10;53.10;;;;;;4932973;28;90419;-60
2022/08/31 02:21:15;;;;;;;60.55;50.38;;;25.10;53.20;;;;;;4928099;28;90576;-60
2022/08/31 02:23:41;;;;;;;60.28;50.47;;;25.10;53.20;;;;;;4929581;28;91333;-60
2022/08/31 02:26:07;;;;;;;60.90;50.45;;;25.10;53.20;;;;;;4930926;28;89893;-60
2022/08/31 02:28:33;;;;;;;60.28;50.40;;;25.00;53.20;;;;;;4927135;28;89917;-60
2022/08/31 02:30:58;;;;;;;60.72;50.38;;;25.00;53.20;;;;;;4926659;28;89149;-60
2022/08/31 02:33:24;;;;;;;60.83;50.50;;;25.00;53.30;;;;;;4928305;28;89946;-60
2022/08/31 02:35:50;;;;;;;62.15;50.25;;;25.00;53.40;;;;;;4935069;28;89829;-60
2022/08/31 02:38:16;;;;;;;60.80;50.47;;;25.00;53.30;;;;;;4935672;28;91417;-60
2022/08/31 02:40:42;;;;;;;60.15;50.25;;;25.00;53.30;;;;;;4931364;28;94419;-60
2022/08/31 02:43:09;;;;;;;60.47;50.47;;;25.00;53.40;;;;;;4936404;28;89663;-60
2022/08/31 02:45:36;;;;;;;60.83;50.20;;;25.00;53.40;;;;;;4928616;28;92901;-60
2022/08/31 02:48:04;;;;;;;60.60;50.53;;;25.00;53.40;;;;;;4930105;28;92026;-60
2022/08/31 02:50:30;;;;;;;60.60;50.65;;;25.00;53.50;;;;;;4930729;28;90020;-60
2022/08/31 02:52:56;;;;;;;60.72;50.30;;;25.00;53.50;;;;;;4934240;28;90050;-60
2022/08/31 02:55:23;;;;;;;60.63;50.38;;;25.00;53.50;;;;;;4928108;28;90442;-60
2022/08/31 02:57:50;;;;;;;60.35;50.25;;;25.00;53.50;;;;;;4933393;28;89613;-60
2022/08/31 03:00:18;;;;;;;60.28;50.28;;;25.00;53.60;;;;;;4929158;28;89508;-60
2022/08/31 03:02:43;;;;;;;60.33;50.33;;;24.90;53.60;;;;;;4929359;28;93029;-60
2022/08/31 03:05:09;;;;;;;60.25;50.47;;;24.90;53.60;;;;;;4930718;28;90220;-60
2022/08/31 03:07:36;;;;;;;60.10;50.45;;;24.90;53.60;;;;;;4927783;28;89673;-60
2022/08/31 03:10:05;;;;;;;60.40;50.17;;;24.90;53.60;;;;;;4933890;28;94880;-60
2022/08/31 03:12:30;;;;;;;61.00;50.47;;;24.90;53.60;;;;;;4928173;28;90394;-60
2022/08/31 03:14:56;;;;;;;60.45;50.42;;;24.90;53.60;;;;;;4928659;28;91499;-60
2022/08/31 03:17:22;;;;;;;60.40;50.53;;;24.90;53.60;;;;;;4932101;28;89900;-60
2022/08/31 03:19:47;;;;;;;60.33;50.35;;;24.90;53.60;;;;;;4930893;28;92733;-60
2022/08/31 03:22:14;;;;;;;60.30;50.45;;;24.90;53.60;;;;;;4923943;28;92353;-60
2022/08/31 03:24:40;;;;;;;61.28;50.65;;;24.90;53.70;;;;;;4926562;28;90188;-60
2022/08/31 03:27:05;;;;;;;60.50;50.75;;;24.90;53.70;;;;;;4931981;28;90990;-61
2022/08/31 03:29:31;;;;;;;60.20;50.35;;;24.90;53.80;;;;;;4926664;28;96991;-60
2022/08/31 03:31:57;;;;;;;60.60;50.63;;;24.90;53.80;;;;;;4924141;28;91303;-60
2022/08/31 03:34:23;;;;;;;60.05;50.35;;;24.90;53.80;;;;;;4933349;28;90076;-60
2022/08/31 03:36:48;;;;;;;60.22;50.47;;;24.90;53.80;;;;;;4929795;28;89514;-60
2022/08/31 03:39:14;;;;;;;60.30;50.42;;;24.90;53.80;;;;;;4927148;28;94988;-60
2022/08/31 03:41:40;;;;;;;60.03;50.22;;;24.80;53.70;;;;;;4927804;28;92674;-60
2022/08/31 03:44:05;;;;;;;59.70;50.25;;;24.80;53.80;;;;;;4932538;28;92086;-63
2022/08/31 03:46:32;;;;;;;60.80;50.42;;;24.80;54.50;;;;;;4930510;28;90083;-60
2022/08/31 03:49:00;;;;;;;60.35;50.53;;;24.80;53.90;;;;;;4931786;28;94446;-60
2022/08/31 03:51:26;;;;;;;60.47;50.30;;;24.80;54.50;;;;;;4935461;28;92491;-60
2022/08/31 03:53:52;;;;;;;59.65;50.25;;;24.80;53.90;;;;;;4927711;28;90601;-60
2022/08/31 03:56:18;;;;;;;60.15;50.08;;;24.80;53.80;;;;;;4926686;28;90106;-60
2022/08/31 03:58:44;;;;;;;60.35;50.40;;;24.80;54.00;;;;;;4933299;28;90461;-60
2022/08/31 04:01:12;;;;;;;60.30;50.58;;;24.80;53.90;;;;;;4921553;28;91136;-60
2022/08/31 04:03:37;;;;;;;60.22;50.45;;;24.70;54.00;;;;;;4928071;28;90761;-60
2022/08/31 04:06:10;;;;;;;60.65;50.65;;;24.70;53.90;;;;;;4928221;28;94335;-60
2022/08/31 04:08:36;;;;;;;60.55;50.30;;;24.70;54.10;;;;;;4925403;28;89724;-59
2022/08/31 04:11:08;;;;;;;60.10;50.33;;;24.70;54.10;;;;;;4921354;28;91751;-60
2022/08/31 04:13:35;;;;;;;59.90;50.20;;;24.70;54.60;;;;;;4929744;28;90199;-61
2022/08/31 04:16:01;;;;;;;59.35;49.88;;;24.70;54.00;;;;;;4929451;28;93769;-61
2022/08/31 04:18:27;;;;;;;61.72;50.13;;;24.70;54.10;;;;;;4934139;28;89965;-61
2022/08/31 04:20:52;;;;;;;59.75;50.13;;;24.70;54.00;;;;;;4929245;28;93466;-61
2022/08/31 04:23:18;;;;;;;60.78;50.20;;;24.70;54.10;;;;;;4928135;28;91190;-60
2022/08/31 04:25:43;;;;;;;60.72;50.38;;;24.70;54.20;;;;;;4930816;28;89967;-61
2022/08/31 04:28:09;;;;;;;60.80;50.40;;;24.70;54.10;;;;;;4928734;28;91699;-61
2022/08/31 04:30:40;;;;;;;60.53;50.38;;;24.70;54.20;;;;;;4934997;28;90437;-61
2022/08/31 04:33:06;;;;;;;60.35;50.08;;;24.70;54.30;;;;;;4926532;28;95190;-60
2022/08/31 04:35:32;;;;;;;60.75;50.13;;;24.70;54.40;;;;;;4928909;28;90507;-60
2022/08/31 04:37:58;;;;;;;62.53;50.30;;;24.60;54.30;;;;;;4929642;28;90448;-60
2022/08/31 04:40:23;;;;;;;59.60;50.05;;;24.60;54.40;;;;;;4932414;28;92547;-60
2022/08/31 04:42:49;;;;;;;59.58;50.22;;;24.70;54.40;;;;;;4920213;28;90923;-60
2022/08/31 04:45:16;;;;;;;59.88;50.05;;;24.70;54.50;;;;;;4933079;28;92049;-60
2022/08/31 04:47:43;;;;;;;61.45;50.22;;;24.70;54.40;;;;;;4933403;28;90053;-60
2022/08/31 04:50:10;;;;;;;61.50;50.25;;;24.60;54.40;;;;;;4938477;28;89293;-60
2022/08/31 04:52:37;;;;;;;61.03;50.38;;;24.60;54.50;;;;;;4920917;28;93468;-60
2022/08/31 04:55:03;;;;;;;60.45;50.42;;;24.60;54.50;;;;;;4926103;28;90353;-60
2022/08/31 04:57:30;;;;;;;61.22;50.58;;;24.60;54.60;;;;;;4931062;28;89124;-60
2022/08/31 04:59:56;;;;;;;62.20;50.72;;;24.60;54.80;;;;;;4931788;28;90057;-60
2022/08/31 05:02:22;;;;;;;66.22;51.88;;;24.60;54.80;;;;;;4927119;28;90073;-60
2022/08/31 05:04:47;;;;;;;64.00;51.22;;;24.50;55.30;;;;;;4921044;28;90993;-60
2022/08/31 05:07:13;;;;;;;62.88;51.35;;;24.60;55.40;;;;;;4927007;28;90399;-60
2022/08/31 05:09:38;;;;;;;63.47;51.13;;;24.50;55.40;;;;;;4932665;28;90179;-60
2022/08/31 05:12:04;;;;;;;63.47;51.10;;;24.60;55.40;;;;;;4927263;28;89957;-60
2022/08/31 05:14:30;;;;;;;62.75;51.13;;;24.60;55.20;;;;;;4924505;28;91001;-60
2022/08/31 05:16:55;;;;;;;64.93;51.33;;;24.50;55.20;;;;;;4929886;28;89732;-60
2022/08/31 05:19:21;;;;;;;60.97;50.78;;;24.60;55.20;;;;;;4935273;28;94485;-60
2022/08/31 05:21:47;;;;;;;61.60;50.85;;;24.60;55.20;;;;;;4922864;28;89871;-60
2022/08/31 05:24:21;;;;;;;60.95;50.75;;;24.60;55.10;;;;;;4933025;28;89684;-60
2022/08/31 05:26:50;;;;;;;66.55;51.40;;;24.60;55.10;;;;;;4943309;28;89741;-60
2022/08/31 05:29:19;;;;;;;61.92;51.25;;;24.60;55.10;;;;;;4928882;28;91141;-59
2022/08/31 05:31:45;;;;;;;60.60;50.55;;;24.60;55.20;;;;;;4919446;28;91420;-60
2022/08/31 05:34:11;;;;;;;61.45;50.97;;;24.60;55.00;;;;;;4925313;28;91171;-60
2022/08/31 05:36:38;;;;;;;61.63;51.05;;;24.60;55.10;;;;;;4936120;28;91609;-60
2022/08/31 05:39:08;;;;;;;63.90;51.38;;;24.60;55.20;;;;;;4926817;28;90027;-60
2022/08/31 05:41:34;;;;;;;64.53;51.05;;;24.60;55.20;;;;;;4923224;28;90244;-60
2022/08/31 05:44:02;;;;;;;62.45;51.17;;;24.60;55.20;;;;;;4934022;28;89953;-60
2022/08/31 05:46:28;;;;;;;62.47;51.33;;;24.60;55.20;;;;;;4935327;28;89369;-60
2022/08/31 05:48:54;;;;;;;61.70;51.00;;;24.60;55.20;;;;;;4934374;28;90845;-60
2022/08/31 05:51:20;;;;;;;64.30;50.92;;;24.60;55.20;;;;;;4935875;28;89844;-60
2022/08/31 05:53:47;;;;;;;62.58;51.25;;;24.60;55.20;;;;;;4934870;28;91462;-60
2022/08/31 05:56:18;;;;;;;64.18;51.35;;;24.60;55.00;;;;;;4924681;28;92912;-60
2022/08/31 05:58:44;;;;;;;64.53;51.35;;;24.60;55.00;;;;;;4927292;28;89858;-60
2022/08/31 06:01:13;;;;;;;63.13;51.22;;;24.60;55.10;;;;;;4923979;28;95709;-59
2022/08/31 06:03:39;;;;;;;63.67;51.13;;;24.60;55.10;;;;;;4930541;28;89707;-60
2022/08/31 06:06:08;;;;;;;61.53;50.90;;;24.60;55.10;;;;;;4925736;28;95768;-59
2022/08/31 06:08:35;;;;;;;62.72;51.20;;;24.60;55.00;;;;;;4925583;28;90159;-60
2022/08/31 06:11:02;;;;;;;63.05;51.15;;;24.60;55.20;;;;;;4927103;28;89554;-60
2022/08/31 06:13:27;;;;;;;63.72;51.45;;;24.60;55.00;;;;;;4930652;28;89480;-60
2022/08/31 06:15:55;;;;;;;61.97;51.28;;;24.60;55.20;;;;;;4918971;28;90892;-60
2022/08/31 06:18:20;;;;;;;63.22;51.28;;;24.60;55.00;;;;;;4900168;28;92912;-59
2022/08/31 06:20:46;;;;;;;65.38;51.78;;;24.50;55.40;;;;;;4929387;28;90172;-58
2022/08/31 06:23:12;;;;;;;63.58;51.63;;;24.50;55.30;;;;;;4922788;28;90607;-59
2022/08/31 06:25:38;;;;;;;64.18;51.42;;;24.60;55.30;;;;;;4924401;28;95040;-58
2022/08/31 06:28:06;;;;;;;61.15;50.60;;;24.60;55.50;;;;;;4928268;28;94415;-59
2022/08/31 06:30:38;;;;;;;63.50;51.45;;;24.50;55.10;;;;;;4928357;28;91845;-59
2022/08/31 06:33:04;;;;;;;63.35;51.35;;;24.50;55.40;;;;;;4925912;28;90657;-59
2022/08/31 06:35:30;;;;;;;63.13;51.65;;;24.60;55.30;;;;;;4925495;28;89814;-59
2022/08/31 06:37:56;;;;;;;61.13;50.92;;;24.50;55.20;;;;;;4942568;28;89995;-59
2022/08/31 06:40:23;;;;;;;62.45;51.42;;;24.60;55.10;;;;;;4931244;28;90774;-59
2022/08/31 06:42:49;;;;;;;63.00;52.40;;;24.60;55.10;;;;;;4924030;28;91932;-54
2022/08/31 06:45:15;;;;;;;63.22;52.28;;;24.40;54.00;;;;;;4945398;28;91120;-59
2022/08/31 06:47:40;;;;;;;66.75;52.25;;;23.70;55.40;;;;;;4940339;28;90023;-60
2022/08/31 06:50:07;;;;;;;63.53;51.65;;;23.10;56.60;;;;;;4934272;28;90006;-54
2022/08/31 06:52:33;;;;;;;64.00;52.33;;;22.90;58.50;;;;;;4935718;28;91124;-54
2022/08/31 06:54:59;;;;;;;63.03;51.30;;;22.90;58.20;;;;;;4929149;28;89989;-57
2022/08/31 06:57:24;;;;;;;64.75;52.35;;;22.90;58.20;;;;;;4925688;28;89917;-58
2022/08/31 06:59:52;;;;;;;62.80;52.35;;;22.70;57.50;;;;;;4924608;28;91337;-58
2022/08/31 07:02:19;;;;;;;64.15;52.25;;;22.80;58.00;;;;;;4935850;28;92022;-57
2022/08/31 07:04:45;;;;;;;63.47;51.38;;;22.80;57.30;;;;;;4931790;28;89899;-58
2022/08/31 07:07:10;;;;;;;63.30;51.20;;;22.90;57.70;;;;;;4933274;28;94679;-57
2022/08/31 07:09:38;;;;;;;62.60;52.05;;;23.20;56.70;;;;;;4934002;28;93543;-58
2022/08/31 07:12:05;;;;;;;62.58;52.00;;;23.30;56.20;;;;;;4933657;28;90077;-57
2022/08/31 07:14:31;;;;;;;65.32;52.17;;;23.30;56.00;;;;;;4928095;28;92826;-57
2022/08/31 07:16:58;;;;;;;64.50;51.95;;;23.30;56.50;;;;;;4923867;28;91159;-54
2022/08/31 07:19:25;;;;;;;62.50;52.25;;;23.30;56.00;;;;;;4924999;28;90526;-57
2022/08/31 07:21:56;;;;;;;62.92;51.60;;;23.30;56.00;;;;;;4923590;28;91232;-56
2022/08/31 07:24:27;;;;;;;63.30;51.22;;;23.40;55.60;;;;;;4921876;28;89395;-57
2022/08/31 07:26:56;;;;;;;65.45;52.55;;;23.50;55.90;;;;;;4922973;28;90308;-58
2022/08/31 07:29:23;;;;;;;62.80;52.53;;;23.50;55.00;;;;;;4926044;28;92306;-50
2022/08/31 07:31:49;;;;;;;62.03;52.28;;;23.50;55.20;;;;;;4931009;28;90984;-60
2022/08/31 07:34:17;;;;;;;64.50;51.95;;;23.30;55.50;;;;;;4922451;28;92674;-54
2022/08/31 07:42:16;;;;;;;64.22;51.47;;;23.40;55.70;;;;;;4924406;28;90010;-58
2022/08/31 07:44:50;;;;;;;64.95;51.85;;;23.40;55.90;;;;;;4938715;28;89933;-59
2022/08/31 07:47:18;;;;;;;64.88;52.72;;;23.40;56.00;;;;;;4931030;28;92405;-54
2022/08/31 07:49:47;;;;;;;65.03;51.83;;;23.60;54.90;;;;;;4928002;28;89926;-57
2022/08/31 07:52:22;;;;;;;61.72;51.60;;;23.60;55.50;;;;;;4925976;28;89785;-55
2022/08/31 07:54:49;;;;;;;61.63;51.33;;;23.60;55.00;;;;;;4932717;28;96538;-56
2022/08/31 07:57:15;;;;;;;63.05;52.03;;;23.60;55.20;;;;;;4941147;28;90917;-58
2022/08/31 07:59:41;;;;;;;62.50;51.60;;;23.60;54.80;;;;;;4936180;28;89790;-54
2022/08/31 08:02:15;;;;;;;64.13;53.22;;;23.60;55.10;;;;;;4936236;28;89880;-56
2022/08/31 08:04:43;;;;;;;61.38;51.05;;;23.70;54.70;;;;;;4937316;28;91967;-53
2022/08/31 08:07:10;;;;;;;67.70;51.72;;;23.90;54.70;;;;;;4930247;28;90545;-55
2022/08/31 08:09:36;;;;;;;61.90;52.10;;;24.00;54.30;;;;;;4926432;28;90160;-58
2022/08/31 08:12:05;;;;;;;61.95;52.25;;;23.90;53.90;;;;;;4925778;28;89552;-58
2022/08/31 08:14:40;;;;;;;67.32;52.38;;;24.00;54.50;;;;;;4942930;28;89163;-57
2022/08/31 08:17:06;;;;;;;65.35;52.33;;;24.00;53.90;;;;;;4933403;28;91049;-59
2022/08/31 08:19:33;;;;;;;62.28;51.13;;;24.10;54.10;;;;;;4927119;28;90314;-54
2022/08/31 08:22:01;;;;;;;61.72;51.47;;;24.10;53.90;;;;;;4911763;28;92165;-53
2022/08/31 08:24:28;;;;;;;66.15;52.90;;;24.20;53.90;;;;;;4929380;28;90135;-56
2022/08/31 08:26:54;;;;;;;64.68;52.97;;;24.30;53.50;;;;;;4925539;28;90219;-57
2022/08/31 08:29:20;;;;;;;63.97;52.38;;;24.30;53.50;;;;;;4931808;28;96642;-53
2022/08/31 08:31:50;;;;;;;63.25;51.08;;;24.20;53.60;;;;;;4927804;28;94566;-54
2022/08/31 08:34:18;;;;;;;64.07;52.55;;;24.20;54.00;;;;;;4927874;28;90538;-55
2022/08/31 08:36:44;;;;;;;66.00;52.80;;;24.30;53.70;;;;;;4922634;28;91732;-55
2022/08/31 08:39:10;;;;;;;63.90;52.90;;;24.40;53.60;;;;;;4928511;28;89861;-53
2022/08/31 08:41:38;;;;;;;65.78;52.40;;;24.50;52.80;;;;;;4932991;28;89705;-55
2022/08/31 08:44:09;;;;;;;63.50;51.85;;;24.40;53.20;;;;;;4929807;28;89787;-50
2022/08/31 08:46:38;;;;;;;67.15;53.22;;;24.40;53.30;;;;;;4931957;28;91028;-51
2022/08/31 08:49:14;;;;;;;67.53;52.58;;;24.30;53.40;;;;;;4932650;28;90796;-53
2022/08/31 08:51:41;;;;;;;65.47;52.28;;;24.40;54.20;;;;;;4924795;28;90566;-53
2022/08/31 08:54:12;;;;;;;63.10;52.03;;;24.40;53.50;;;;;;4929195;28;91011;-52
2022/08/31 08:56:40;;;;;;;63.47;52.50;;;24.40;53.30;;;;;;4930501;28;90801;-54
2022/08/31 08:59:10;;;;;;;63.25;52.25;;;24.40;53.00;;;;;;4926996;28;93437;-58
2022/08/31 09:01:36;;;;;;;69.15;52.22;;;24.40;52.90;;;;;;4935032;28;89703;-53
2022/08/31 09:04:23;;;;;;;64.28;53.33;;;24.50;53.10;;;;;;4935721;28;95147;-59
2022/08/31 09:06:53;;;;;;;64.63;52.58;;;24.50;52.70;;;;;;4932062;28;90508;-56
2022/08/31 09:09:52;;;;;;;66.43;52.53;;;24.50;53.10;;;;;;4928543;28;90220;-56
2022/08/31 09:12:30;;;;;;;65.60;52.35;;;24.60;53.70;;;;;;4933365;28;90572;-59
2022/08/31 09:15:14;;;;;;;67.32;52.50;;;24.70;53.10;;;;;;4932222;28;89600;-56
2022/08/31 09:18:01;;;;;;;63.92;52.30;;;24.60;53.10;;;;;;4933155;28;89963;-57
2022/08/31 09:20:27;;;;;;;64.28;52.25;;;24.70;53.20;;;;;;4930359;28;90966;-51
2022/08/31 09:22:56;;;;;;;64.03;52.63;;;24.60;53.10;;;;;;4919995;28;92362;-56
2022/08/31 09:25:36;;;;;;;66.72;53.25;;;24.60;53.20;;;;;;4929449;28;89938;-57
2022/08/31 09:28:06;;;;;;;64.78;52.70;;;24.80;52.40;;;;;;4934360;28;90670;-52
2022/08/31 09:30:44;;;;;;;64.72;53.35;;;24.70;52.30;;;;;;4927057;28;97867;-58
2022/08/31 09:33:20;;;;;;;67.32;52.78;;;24.70;51.90;;;;;;4921413;28;90373;-49
2022/08/31 09:35:54;;;;;;;64.45;52.55;;;24.70;52.30;;;;;;4924676;28;90236;-57
2022/08/31 09:38:33;;;;;;;66.65;53.22;;;24.70;52.30;;;;;;4931821;28;91545;-56
2022/08/31 09:41:02;;;;;;;67.07;53.17;;;24.80;52.40;;;;;;4927557;28;90586;-56
2022/08/31 09:43:36;;;;;;;63.80;52.67;;;24.70;51.70;;;;;;4928599;28;89653;-51
2022/08/31 09:46:28;;;;;;;65.55;52.00;;;24.80;52.10;;;;;;4948212;28;90193;-56
2022/08/31 09:48:57;;;;;;;66.38;52.95;;;25.00;53.10;;;;;;4943442;28;90101;-53
2022/08/31 09:51:37;;;;;;;65.88;52.88;;;25.00;51.50;;;;;;4923152;28;93536;-52
2022/08/31 09:56:54;;;;;;;65.47;52.28;;;24.90;52.50;;;;;;4923871;28;89103;-50
2022/08/31 09:59:45;;;;;;;68.88;52.83;;;25.00;52.60;;;;;;4928569;28;90260;-49
2022/08/31 10:02:25;;;;;;;66.90;53.45;;;25.20;52.10;;;;;;4930806;28;90006;-51
2022/08/31 10:05:00;;;;;;;67.97;52.60;;;25.20;50.10;;;;;;4927331;28;93166;-54
2022/08/31 10:07:44;;;;;;;65.55;52.55;;;25.20;51.70;;;;;;4936331;28;90118;-53
2022/08/31 10:10:25;;;;;;;68.50;53.15;;;25.20;51.60;;;;;;4933961;28;90184;-55
2022/08/31 10:12:54;;;;;;;66.70;53.08;;;25.20;51.70;;;;;;4929173;28;90254;-52
2022/08/31 10:15:40;;;;;;;67.20;52.55;;;25.40;51.80;;;;;;4926912;28;89841;-51
2022/08/31 10:18:25;;;;;;;68.72;52.55;;;25.40;51.70;;;;;;4928702;28;90715;-50
2022/08/31 10:21:06;;;;;;;65.65;53.35;;;25.40;51.50;;;;;;4922796;28;90600;-50
2022/08/31 10:23:57;;;;;;;;;;;25.50;50.60;;;;;;4928355;28;89416;-50
2022/08/31 10:26:35;;;;;;;65.85;52.22;;;25.30;49.50;;;;;;4923908;28;90332;-53
2022/08/31 10:29:30;;;;;;;65.65;52.15;;;25.40;51.80;;;;;;4925684;28;89941;-55
2022/08/31 10:32:00;;;;;;;67.32;52.67;;;25.30;51.20;;;;;;4924826;28;91715;-56
2022/08/31 10:37:48;;;;;;;64.68;52.88;;;25.30;51.10;;;;;;4927458;28;89866;-53
2022/08/31 10:40:30;;;;;;;65.43;53.03;;;25.40;51.70;;;;;;4926305;28;90588;-54
2022/08/31 10:43:21;;;;;;;69.68;52.53;;;25.40;49.90;;;;;;4927232;28;90797;-51
2022/08/31 10:45:52;;;;;;;66.73;52.27;;;25.40;51.20;;;;;;4931454;28;90646;-51
2022/08/31 10:48:23;;;;;;;67.03;52.45;;;25.50;51.00;;;;;;4932963;28;89557;-52
2022/08/31 10:51:04;;;;;;;64.47;51.90;;;25.60;52.00;;;;;;4926600;28;90130;-50
2022/08/31 10:54:01;;;;;;;67.07;52.95;;;25.70;51.70;;;;;;4930331;28;93320;-51
2022/08/31 10:56:34;;;;;;;65.82;52.92;;;25.80;51.30;;;;;;4919386;28;90440;-49
2022/08/31 10:59:26;;;;;;;70.03;52.60;;;25.90;51.40;;;;;;4929939;28;96089;-54
2022/08/31 11:02:28;;;;;;;69.90;53.15;;;25.90;50.30;;;;;;4930249;28;90477;-51
2022/08/31 11:05:02;;;;;;;67.18;53.13;;;25.80;50.40;;;;;;4932824;28;90597;-50
2022/08/31 11:07:34;;;;;;;67.78;52.70;;;25.90;50.50;;;;;;4936533;28;92859;-53
2022/08/31 11:10:18;;;;;;;67.80;53.85;;;26.00;50.70;;;;;;4928105;28;90106;-49
2022/08/31 11:12:50;;;;;;;66.68;52.92;;;26.00;48.80;;;;;;4926259;28;94998;-54
2022/08/31 11:15:33;;;;;;;65.53;52.78;;;25.90;49.60;;;;;;4931172;28;90084;-55
2022/08/31 11:18:38;;;;;;;65.20;52.80;;;25.90;50.00;;;;;;4932250;28;89855;-53
2022/08/31 11:21:34;;;;;;;67.07;52.78;;;26.00;49.60;;;;;;4916257;28;91335;-55
2022/08/31 11:24:19;;;;;;;64.50;52.78;;;26.00;49.70;;;;;;4921552;28;89922;-51
2022/08/31 11:27:10;;;;;;;67.07;53.15;;;25.90;49.10;;;;;;4922172;28;90666;-55
2022/08/31 11:30:06;;;;;;;;;;;26.00;50.30;;;;;;4937078;28;93079;-51
2022/08/31 11:32:38;;;;;;;64.50;52.42;;;26.00;49.80;;;;;;4929207;28;89867;-54
2022/08/31 11:35:09;;;;;;;65.30;52.95;;;26.10;48.70;;;;;;4933676;28;89981;-53
2022/08/31 11:37:49;;;;;;;67.43;53.25;;;26.00;50.00;;;;;;4923990;28;92589;-51
2022/08/31 11:40:40;;;;;;;70.20;53.17;;;26.10;48.40;;;;;;4922402;28;90694;-54
2022/08/31 11:43:29;;;;;;;68.65;53.33;;;26.20;49.80;;;;;;4932335;28;89933;-54
2022/08/31 11:46:00;;;;;;;67.22;53.45;;;26.20;48.70;;;;;;4926345;28;89976;-54
2022/08/31 11:48:50;;;;;;;67.38;52.75;;;26.20;49.10;;;;;;4929815;28;90108;-54
2022/08/31 11:51:40;;;;;;;67.27;53.13;;;26.30;49.20;;;;;;4927619;28;90216;-54
2022/08/31 11:54:13;;;;;;;68.50;52.70;;;26.30;49.50;;;;;;4930769;28;92859;-51
2022/08/31 11:56:43;;;;;;;69.18;53.85;;;26.20;48.70;;;;;;4928405;28;92410;-52
2022/08/31 11:59:23;;;;;;;67.55;54.05;;;26.30;49.10;;;;;;4933813;28;90291;-49
2022/08/31 12:01:50;;;;;;;66.75;53.42;;;26.20;48.20;;;;;;4931254;28;90378;-49
2022/08/31 12:04:46;;;;;;;73.80;53.60;;;26.30;48.90;;;;;;4933169;28;91204;-49
2022/08/31 12:07:25;;;;;;;67.05;54.13;;;26.30;49.50;;;;;;4916092;28;89674;-51
2022/08/31 12:10:05;;;;;;;68.45;53.45;;;26.40;48.00;;;;;;4925418;28;90316;-52
2022/08/31 12:13:17;;;;;;;67.20;53.78;;;26.50;49.40;;;;;;4925065;28;89408;-56
2022/08/31 12:15:59;;;;;;;66.43;53.22;;;26.50;47.30;;;;;;4936396;28;89939;-56
2022/08/31 12:18:43;;;;;;;68.53;53.65;;;26.50;49.70;;;;;;4930056;28;92297;-52
2022/08/31 12:24:49;;;;;;;68.70;53.67;;;26.60;49.60;;;;;;4938010;28;91058;-56
2022/08/31 12:27:30;;;;;;;71.43;53.67;;;26.50;47.80;;;;;;4931559;28;90955;-50
2022/08/31 12:30:14;;;;;;;66.90;53.63;;;26.50;48.10;;;;;;4925291;28;93638;-51
2022/08/31 12:32:44;;;;;;;67.20;53.17;;;26.60;49.80;;;;;;4934443;28;94153;-53
2022/08/31 12:35:15;;;;;;;67.57;53.58;;;26.70;49.10;;;;;;4927011;28;90659;-55
2022/08/31 12:37:41;;;;;;;71.05;53.55;;;26.70;47.90;;;;;;4925512;28;93008;-52
2022/08/31 12:40:10;;;;;;;67.75;53.42;;;26.70;49.10;;;;;;4933889;28;89136;-51
2022/08/31 12:42:48;;;;;;;68.28;53.35;;;26.70;48.20;;;;;;4930620;28;91751;-52
2022/08/31 12:45:16;;;;;;;68.18;53.53;;;26.70;48.80;;;;;;4925757;28;90454;-53
2022/08/31 12:48:00;;;;;;;68.65;53.35;;;26.80;49.10;;;;;;4932693;28;91674;-49
2022/08/31 12:50:37;;;;;;;67.00;53.38;;;26.80;48.40;;;;;;4928806;28;89647;-52
2022/08/31 12:53:24;;;;;;;67.95;53.47;;;26.80;47.80;;;;;;4932147;28;94045;-47
2022/08/31 12:56:13;;;;;;;66.32;52.92;;;26.80;46.50;;;;;;4933268;28;91477;-56
2022/08/31 12:59:05;;;;;;;64.97;53.05;;;26.70;48.60;;;;;;4933427;28;90569;-56
2022/08/31 13:01:31;;;;;;;67.03;52.80;;;26.80;48.20;;;;;;4926556;28;89692;-56
2022/08/31 13:04:02;;;;;;;68.18;53.30;;;26.70;47.50;;;;;;4926269;28;90865;-54
2022/08/31 13:06:30;;;;;;;;;;;26.70;48.80;;;;;;4936236;28;90373;-53